Time;durP1;ratioP1;P1;durP2;ratioP2;P2;SDS_P1;SDS_P2;PMS_P1;PMS_P2;Temp;Humidity;BMP_temperature;BMP_pressure;BME280_temperature;BME280_humidity;BME280_pressure;Samples;Min_cycle;Max_cycle;Signal;HPM_P1;HPM_P2
2023/03/25 00:00:38;;;;;;;294.30;284.67;;;8.20;99.90;;;;;;5094274;28;20450;-79
2023/03/25 00:03:08;;;;;;;307.60;297.47;;;8.30;99.90;;;;;;5094396;28;20468;-79
2023/03/25 00:05:35;;;;;;;290.67;281.20;;;8.30;99.90;;;;;;5076761;28;20494;-80
2023/03/25 00:08:03;;;;;;;320.03;309.40;;;8.20;99.90;;;;;;5076148;28;20473;-79
2023/03/25 00:10:32;;;;;;;298.83;289.07;;;8.10;99.90;;;;;;5094203;28;20454;-79
2023/03/25 00:13:04;;;;;;;310.30;300.03;;;8.20;99.90;;;;;;5094265;28;20456;-79
2023/03/25 00:15:32;;;;;;;306.97;296.53;;;8.20;99.90;;;;;;5076510;28;20449;-79
2023/03/25 00:17:59;;;;;;;281.33;272.07;;;8.20;99.90;;;;;;5073554;28;20478;-79
2023/03/25 00:20:26;;;;;;;209.03;202.10;;;8.20;99.90;;;;;;5073911;28;20450;-79
2023/03/25 00:22:54;;;;;;;183.23;177.13;;;8.40;99.90;;;;;;5073535;28;20454;-79
2023/03/25 00:25:23;;;;;;;184.73;178.73;;;8.50;99.90;;;;;;5073775;28;21210;-79
2023/03/25 00:27:52;;;;;;;158.80;153.30;;;8.50;99.90;;;;;;5073747;28;20471;-79
2023/03/25 00:30:19;;;;;;;163.00;157.50;;;8.60;99.90;;;;;;5073865;28;20829;-79
2023/03/25 00:32:48;;;;;;;88.63;85.23;;;8.60;99.90;;;;;;5055804;28;20558;-79
2023/03/25 00:35:18;;;;;;;71.20;68.40;;;8.70;99.90;;;;;;5073705;28;20545;-79
2023/03/25 00:37:46;;;;;;;55.93;52.90;;;8.80;99.90;;;;;;5073505;28;20478;-79
2023/03/25 00:40:14;;;;;;;49.30;46.97;;;8.70;99.90;;;;;;5093071;28;20456;-79
2023/03/25 00:42:43;;;;;;;36.23;34.00;;;8.90;99.90;;;;;;5093545;28;20446;-79
2023/03/25 00:45:17;;;;;;;20.93;19.93;;;8.80;99.90;;;;;;5093435;28;20474;-80
2023/03/25 00:47:45;;;;;;;15.93;14.80;;;8.90;99.90;;;;;;5093004;28;20473;-79
2023/03/25 00:50:14;;;;;;;9.27;8.30;;;9.00;99.90;;;;;;5092686;28;20946;-79
2023/03/25 00:52:42;;;;;;;6.63;3.60;;;9.00;99.90;;;;;;5093200;28;20830;-79
2023/03/25 00:55:10;;;;;;;7.83;4.47;;;9.10;99.90;;;;;;5092997;28;20933;-79
2023/03/25 00:57:38;;;;;;;6.33;2.70;;;9.00;99.90;;;;;;5092673;28;20458;-79
2023/03/25 01:00:07;;;;;;;8.20;2.87;;;9.00;99.90;;;;;;5093132;28;20453;-79
2023/03/25 01:02:35;;;;;;;9.57;3.50;;;9.10;99.90;;;;;;5092326;28;20446;-79
2023/03/25 01:05:03;;;;;;;5.70;3.47;;;9.00;99.90;;;;;;5078010;28;20469;-79
2023/03/25 01:07:30;;;;;;;8.57;3.30;;;8.90;99.90;;;;;;5092882;28;20454;-80
2023/03/25 01:10:01;;;;;;;11.63;4.17;;;8.90;99.90;;;;;;5092871;28;21025;-79
2023/03/25 01:12:28;;;;;;;5.60;2.77;;;9.00;99.90;;;;;;5074734;28;20876;-79
2023/03/25 01:14:55;;;;;;;5.33;2.70;;;9.10;99.90;;;;;;5092923;28;20957;-79
2023/03/25 01:17:22;;;;;;;4.80;2.20;;;9.10;99.90;;;;;;5093000;28;20453;-79
2023/03/25 01:19:51;;;;;;;9.33;2.20;;;9.20;99.90;;;;;;5093240;28;20450;-79
2023/03/25 01:22:19;;;;;;;6.00;1.90;;;9.20;99.90;;;;;;5092908;28;20446;-79
2023/03/25 01:24:46;;;;;;;9.33;2.30;;;9.20;99.90;;;;;;5092586;28;20491;-79
2023/03/25 01:27:14;;;;;;;7.27;2.13;;;9.10;99.90;;;;;;5091305;28;20453;-80
2023/03/25 01:29:41;;;;;;;6.43;2.27;;;9.20;99.90;;;;;;5073096;28;20469;-79
2023/03/25 01:32:08;;;;;;;9.37;2.23;;;9.10;99.90;;;;;;5092714;28;20528;-80
2023/03/25 01:34:58;;;;;;;5.60;2.37;;;9.10;99.90;;;;;;5092775;28;20438;-78
2023/03/25 01:37:26;;;;;;;6.03;1.70;;;9.00;99.90;;;;;;5092604;28;20456;-79
2023/03/25 01:39:53;;;;;;;4.83;2.10;;;9.00;99.90;;;;;;5092340;28;20453;-79
2023/03/25 01:42:20;;;;;;;6.27;2.03;;;9.00;99.90;;;;;;5092424;28;20450;-80
2023/03/25 01:45:19;;;;;;;4.97;2.20;;;8.90;99.90;;;;;;5074351;28;20477;-79
2023/03/25 01:48:22;;;;;;;10.40;3.40;;;8.80;99.90;;;;;;5092310;28;20473;-80
2023/03/25 01:50:55;;;;;;;5.40;4.40;;;8.60;99.90;;;;;;5088177;28;20476;-80
2023/03/25 01:53:26;;;;;;;6.90;6.20;;;8.50;99.90;;;;;;5092148;28;20464;-80
2023/03/25 01:55:53;;;;;;;8.03;7.23;;;8.30;99.90;;;;;;5092281;28;20456;-79
2023/03/25 01:58:22;;;;;;;12.77;11.60;;;8.20;99.90;;;;;;5091521;28;20461;-80
2023/03/25 02:00:53;;;;;;;14.37;13.57;;;8.10;99.90;;;;;;5091866;28;20445;-79
2023/03/25 02:03:22;;;;;;;17.10;16.20;;;8.10;99.90;;;;;;5081066;28;20448;-79
2023/03/25 02:05:55;;;;;;;12.87;12.17;;;8.00;99.90;;;;;;5092083;28;21015;-79
2023/03/25 02:08:23;;;;;;;15.90;15.00;;;8.10;99.90;;;;;;5091721;28;20473;-79
2023/03/25 02:10:51;;;;;;;16.87;15.87;;;8.00;99.90;;;;;;5092143;28;20449;-79
2023/03/25 02:13:18;;;;;;;13.00;12.20;;;7.90;99.90;;;;;;5091846;28;20937;-79
2023/03/25 02:16:07;;;;;;;13.43;12.60;;;7.90;99.90;;;;;;5074196;28;20453;-79
2023/03/25 02:18:44;;;;;;;12.33;11.47;;;7.90;99.90;;;;;;5091988;28;20481;-80
2023/03/25 02:21:49;;;;;;;14.27;13.37;;;8.00;99.90;;;;;;5092143;28;20578;-79
2023/03/25 02:25:00;;;;;;;19.30;18.30;;;7.90;99.90;;;;;;5092034;28;20568;-79
2023/03/25 02:27:57;;;;;;;12.93;11.93;;;8.10;99.90;;;;;;5077724;28;20446;-79
2023/03/25 02:30:59;;;;;;;14.33;13.10;;;8.20;99.90;;;;;;5089742;28;20465;-79
2023/03/25 02:33:51;;;;;;;16.77;15.53;;;8.40;99.90;;;;;;5091813;28;20937;-80
2023/03/25 02:37:08;;;;;;;10.37;9.57;;;8.50;99.90;;;;;;5091733;28;20464;-79
2023/03/25 02:39:40;;;;;;;7.47;6.87;;;8.40;99.90;;;;;;5032951;28;20567;-79
2023/03/25 02:42:16;;;;;;;5.40;4.77;;;8.60;99.90;;;;;;5083739;28;21002;-80
2023/03/25 02:44:52;;;;;;;6.13;4.47;;;8.70;99.90;;;;;;5077696;28;20473;-79
2023/03/25 02:47:24;;;;;;;5.97;5.30;;;8.70;99.90;;;;;;5095737;28;20458;-80
2023/03/25 02:49:55;;;;;;;8.00;5.30;;;8.60;99.90;;;;;;5096161;28;20453;-79
2023/03/25 02:52:26;;;;;;;5.27;3.50;;;8.50;99.90;;;;;;5077733;28;20453;-80
2023/03/25 02:55:03;;;;;;;4.10;3.20;;;8.60;99.90;;;;;;5095774;28;20536;-79
2023/03/25 02:57:33;;;;;;;8.97;3.90;;;8.60;99.90;;;;;;5075727;28;20458;-80
2023/03/25 03:00:02;;;;;;;5.30;3.73;;;8.70;99.90;;;;;;5058037;28;20458;-80
2023/03/25 03:02:34;;;;;;;6.13;3.53;;;8.80;99.90;;;;;;5082912;28;20454;-79
2023/03/25 03:05:00;;;;;;;11.43;3.53;;;8.70;99.90;;;;;;5094718;28;20473;-79
2023/03/25 03:07:30;;;;;;;9.03;2.77;;;8.80;99.90;;;;;;5077194;28;20460;-80
2023/03/25 03:10:06;;;;;;;8.23;2.93;;;8.80;99.90;;;;;;5095484;28;20448;-79
2023/03/25 03:12:56;;;;;;;4.80;2.80;;;8.80;99.90;;;;;;5094970;28;20449;-79
2023/03/25 03:15:35;;;;;;;7.53;2.80;;;8.80;99.90;;;;;;5095254;28;20824;-79
2023/03/25 03:18:13;;;;;;;5.30;2.43;;;8.70;99.90;;;;;;5076938;28;20548;-80
2023/03/25 03:20:44;;;;;;;10.47;3.10;;;8.80;99.90;;;;;;5078693;28;20453;-79
2023/03/25 03:23:19;;;;;;;6.73;2.47;;;8.80;99.90;;;;;;5095269;28;20525;-79
2023/03/25 03:25:53;;;;;;;6.93;2.53;;;8.90;99.90;;;;;;5095313;28;20465;-79
2023/03/25 03:28:27;;;;;;;9.20;2.67;;;8.80;99.90;;;;;;5094999;28;20476;-79
2023/03/25 03:31:05;;;;;;;6.87;2.07;;;8.70;99.90;;;;;;5095026;28;20507;-79
2023/03/25 03:33:37;;;;;;;5.60;2.30;;;8.70;99.90;;;;;;5076778;28;20953;-79
2023/03/25 03:36:09;;;;;;;7.13;2.90;;;8.50;99.90;;;;;;5076949;28;20456;-79
2023/03/25 03:38:41;;;;;;;5.90;3.67;;;8.50;99.90;;;;;;5095173;28;20885;-80
2023/03/25 03:41:17;;;;;;;12.30;5.13;;;8.60;99.90;;;;;;5093749;28;20456;-79
2023/03/25 03:43:48;;;;;;;8.93;2.93;;;8.80;99.90;;;;;;5094901;28;20463;-80
2023/03/25 03:46:19;;;;;;;5.70;2.70;;;8.80;99.90;;;;;;5094705;28;21093;-79
2023/03/25 03:48:52;;;;;;;6.80;2.60;;;8.80;99.90;;;;;;5094601;28;20465;-79
2023/03/25 03:51:23;;;;;;;7.37;2.33;;;8.80;99.90;;;;;;5093632;28;20855;-80
2023/03/25 03:53:57;;;;;;;6.37;1.97;;;8.80;99.90;;;;;;5094664;28;20464;-79
2023/03/25 03:56:31;;;;;;;7.63;2.40;;;8.70;99.90;;;;;;5094587;28;20967;-79
2023/03/25 03:59:01;;;;;;;5.57;1.90;;;8.80;99.90;;;;;;5094684;28;20477;-79
2023/03/25 04:01:34;;;;;;;6.77;2.67;;;8.80;99.90;;;;;;5094618;28;20905;-79
2023/03/25 04:04:04;;;;;;;5.60;1.60;;;8.80;99.90;;;;;;5094471;28;20437;-79
2023/03/25 04:06:37;;;;;;;8.73;2.70;;;8.80;99.90;;;;;;5094467;28;21016;-79
2023/03/25 04:09:10;;;;;;;7.90;2.20;;;8.70;99.90;;;;;;5094268;28;20474;-79
2023/03/25 04:11:43;;;;;;;7.30;1.90;;;8.60;99.90;;;;;;5094397;28;20453;-80
2023/03/25 04:14:13;;;;;;;6.50;2.17;;;8.70;99.90;;;;;;5093904;28;20453;-79
2023/03/25 04:16:44;;;;;;;14.73;2.80;;;8.80;99.90;;;;;;5094863;28;20526;-79
2023/03/25 04:19:12;;;;;;;8.60;2.30;;;8.80;99.90;;;;;;5093789;28;20828;-79
2023/03/25 04:21:40;;;;;;;5.10;1.73;;;8.80;99.90;;;;;;5093697;28;20452;-79
2023/03/25 04:24:07;;;;;;;7.40;2.20;;;8.90;99.90;;;;;;5094028;28;20453;-80
2023/03/25 04:26:37;;;;;;;7.33;1.90;;;8.90;99.90;;;;;;5093980;28;20477;-79
2023/03/25 04:29:06;;;;;;;8.83;2.10;;;9.00;99.90;;;;;;5102742;28;20471;-79
2023/03/25 04:31:33;;;;;;;7.07;1.93;;;9.00;99.90;;;;;;5106615;28;20465;-79
2023/03/25 04:34:01;;;;;;;6.57;1.80;;;9.10;99.90;;;;;;5075490;28;21005;-79
2023/03/25 04:36:32;;;;;;;8.33;2.77;;;9.10;99.90;;;;;;5093576;28;20446;-79
2023/03/25 04:39:00;;;;;;;10.00;2.40;;;9.20;99.90;;;;;;5076100;28;20851;-79
2023/03/25 04:41:27;;;;;;;5.87;2.00;;;9.20;99.90;;;;;;5093101;28;20460;-79
2023/03/25 04:43:54;;;;;;;8.97;1.67;;;9.10;99.90;;;;;;5093711;28;20552;-79
2023/03/25 04:46:22;;;;;;;6.53;1.90;;;9.00;99.90;;;;;;5093461;28;20484;-79
2023/03/25 04:48:50;;;;;;;9.67;2.47;;;9.10;99.90;;;;;;5084673;28;20498;-79
2023/03/25 04:51:17;;;;;;;7.67;3.50;;;9.10;99.90;;;;;;5073207;28;20970;-79
2023/03/25 04:53:46;;;;;;;6.90;2.10;;;9.00;99.90;;;;;;5082910;28;20462;-79
2023/03/25 04:56:16;;;;;;;11.00;2.17;;;9.00;99.90;;;;;;5093481;28;20449;-79
2023/03/25 04:58:43;;;;;;;5.80;2.00;;;9.10;99.90;;;;;;5093178;28;20469;-79
2023/03/25 05:01:22;;;;;;;7.40;2.13;;;9.00;99.90;;;;;;5093073;28;20996;-79
2023/03/25 05:03:50;;;;;;;8.77;2.53;;;9.00;99.90;;;;;;5092522;28;20461;-79
2023/03/25 05:06:18;;;;;;;8.00;1.93;;;8.90;99.90;;;;;;5093021;28;20469;-79
2023/03/25 05:08:45;;;;;;;7.30;2.20;;;8.90;99.90;;;;;;5093522;28;20546;-79
2023/03/25 05:11:12;;;;;;;6.40;1.67;;;8.90;99.90;;;;;;5093140;28;20449;-78
2023/03/25 05:13:39;;;;;;;7.43;2.20;;;8.90;99.90;;;;;;5093065;28;20457;-79
2023/03/25 05:16:07;;;;;;;7.40;2.17;;;9.00;99.90;;;;;;5092965;28;20453;-79
2023/03/25 05:18:34;;;;;;;9.03;2.43;;;9.00;99.90;;;;;;5093179;28;20552;-78
2023/03/25 05:21:12;;;;;;;17.07;2.50;;;8.90;99.90;;;;;;5092900;28;20540;-79
2023/03/25 05:23:40;;;;;;;8.10;2.07;;;8.90;99.90;;;;;;5074897;28;20450;-79
2023/03/25 05:26:08;;;;;;;6.80;2.27;;;8.80;99.90;;;;;;5092546;28;20527;-78
2023/03/25 05:28:35;;;;;;;6.80;3.00;;;8.80;99.90;;;;;;5092250;28;20469;-79
2023/03/25 05:31:07;;;;;;;9.50;2.20;;;8.60;99.90;;;;;;5092226;28;20453;-79
2023/03/25 05:33:35;;;;;;;10.23;2.97;;;8.60;99.90;;;;;;5090770;28;20454;-79
2023/03/25 05:36:04;;;;;;;12.70;2.70;;;8.60;99.90;;;;;;5087775;28;20546;-78
2023/03/25 05:38:32;;;;;;;8.90;2.40;;;8.60;99.90;;;;;;5092214;28;20462;-78
2023/03/25 05:41:00;;;;;;;12.23;2.97;;;8.70;99.90;;;;;;5092414;28;20454;-79
2023/03/25 05:43:34;;;;;;;12.30;3.00;;;8.80;99.90;;;;;;5092515;28;20527;-79
2023/03/25 05:46:03;;;;;;;9.50;2.70;;;8.80;99.90;;;;;;5091819;28;20461;-79
2023/03/25 05:48:31;;;;;;;8.43;2.37;;;8.80;99.90;;;;;;5092028;28;20465;-79
2023/03/25 05:50:59;;;;;;;9.97;2.90;;;8.80;99.90;;;;;;5092258;28;20449;-79
2023/03/25 05:53:29;;;;;;;9.70;2.30;;;8.90;99.90;;;;;;5092261;28;21026;-79
2023/03/25 05:55:57;;;;;;;6.60;2.37;;;8.90;99.90;;;;;;5092301;28;21172;-79
2023/03/25 05:58:25;;;;;;;17.13;2.73;;;8.90;99.90;;;;;;5073721;28;20480;-79
2023/03/25 06:00:55;;;;;;;9.10;1.87;;;9.10;99.90;;;;;;5091847;28;20441;-79
2023/03/25 06:03:24;;;;;;;5.33;1.70;;;9.20;99.90;;;;;;5092409;28;20445;-78
2023/03/25 06:05:51;;;;;;;8.87;2.37;;;9.10;99.90;;;;;;5091977;28;20469;-79
2023/03/25 06:08:24;;;;;;;7.03;2.43;;;8.90;99.90;;;;;;5091768;28;20515;-79
2023/03/25 06:10:53;;;;;;;4.73;3.27;;;8.80;99.90;;;;;;5091680;28;20450;-79
2023/03/25 06:13:26;;;;;;;6.60;5.70;;;8.70;99.90;;;;;;5091947;28;20457;-80
2023/03/25 06:15:54;;;;;;;15.77;14.73;;;8.40;99.90;;;;;;5092456;28;20517;-80
2023/03/25 06:18:24;;;;;;;36.40;34.37;;;8.20;99.90;;;;;;5091859;28;20469;-80
2023/03/25 06:20:52;;;;;;;153.23;147.37;;;8.20;99.90;;;;;;5091568;28;20449;-79
2023/03/25 06:23:21;;;;;;;197.23;190.13;;;8.20;99.90;;;;;;5087090;28;20452;-80
2023/03/25 06:25:48;;;;;;;293.70;283.80;;;8.20;99.90;;;;;;5091214;28;20558;-79
2023/03/25 06:28:17;;;;;;;197.67;190.87;;;8.20;99.90;;;;;;5090454;28;21083;-79
2023/03/25 06:30:49;;;;;;;242.77;233.93;;;8.10;99.90;;;;;;5087870;28;20458;-79
2023/03/25 06:33:18;;;;;;;319.90;307.73;;;8.20;99.90;;;;;;5091367;28;20445;-79
2023/03/25 06:35:52;;;;;;;314.67;303.27;;;8.30;99.90;;;;;;5090314;28;20503;-79
2023/03/25 06:41:57;;;;;;;331.87;319.47;;;8.20;99.90;;;;;;5011484;28;20961;-79
2023/03/25 06:44:24;;;;;;;314.97;302.27;;;8.20;99.90;;;;;;5090882;28;20438;-78
2023/03/25 06:46:57;;;;;;;270.67;261.03;;;8.30;99.90;;;;;;5086773;28;20508;-78
2023/03/25 06:49:24;;;;;;;238.73;230.63;;;8.60;99.90;;;;;;5091956;28;20497;-79
2023/03/25 06:51:53;;;;;;;130.70;125.37;;;8.40;99.90;;;;;;5091389;28;20478;-78
2023/03/25 06:54:21;;;;;;;104.07;100.17;;;8.60;99.90;;;;;;5091636;28;20453;-78
2023/03/25 06:56:49;;;;;;;156.83;151.03;;;8.70;99.90;;;;;;5091162;28;20528;-78
2023/03/25 06:59:16;;;;;;;194.10;187.53;;;8.70;99.90;;;;;;5089166;28;21061;-78
2023/03/25 07:01:43;;;;;;;77.03;73.90;;;8.80;99.90;;;;;;5073077;28;20457;-79
2023/03/25 07:04:11;;;;;;;85.27;81.80;;;9.10;99.90;;;;;;5090668;28;21044;-78
2023/03/25 07:06:38;;;;;;;26.03;24.73;;;8.90;99.90;;;;;;5091384;28;20477;-78
2023/03/25 07:11:51;;;;;;;23.40;21.93;;;9.00;99.90;;;;;;5087569;28;20460;-79
2023/03/25 07:14:57;;;;;;;26.37;24.60;;;9.10;99.90;;;;;;5091287;28;20453;-79
2023/03/25 07:17:25;;;;;;;12.57;11.47;;;9.10;99.90;;;;;;5086410;28;20442;-78
2023/03/25 07:20:38;;;;;;;9.73;6.60;;;9.20;99.90;;;;;;5090363;28;20456;-79
2023/03/25 07:23:09;;;;;;;10.30;5.77;;;9.20;99.90;;;;;;5028537;28;20535;-78
2023/03/25 07:28:41;;;;;;;10.00;5.07;;;9.40;99.90;;;;;;5220372;22;20493;-78
2023/03/25 07:31:15;;;;;;;13.40;4.60;;;9.50;99.90;;;;;;5077562;28;20478;-78
2023/03/25 07:33:42;;;;;;;8.73;4.13;;;9.60;99.90;;;;;;5087096;28;20449;-78
2023/03/25 07:36:12;;;;;;;12.07;3.50;;;9.60;99.90;;;;;;5083858;28;20445;-78
2023/03/25 07:38:39;;;;;;;7.37;2.80;;;9.60;99.90;;;;;;5063304;28;20462;-78
2023/03/25 07:41:07;;;;;;;7.17;2.50;;;9.50;99.90;;;;;;5083373;28;20452;-79
2023/03/25 07:43:34;;;;;;;13.43;2.57;;;9.50;99.90;;;;;;5077242;28;20453;-78
2023/03/25 07:46:02;;;;;;;10.63;3.73;;;9.40;99.90;;;;;;5075327;28;20476;-79
2023/03/25 07:48:29;;;;;;;9.97;2.70;;;9.30;99.90;;;;;;5076551;28;20474;-78
2023/03/25 07:50:57;;;;;;;7.50;3.30;;;9.30;99.90;;;;;;5086160;28;20553;-78
2023/03/25 07:53:25;;;;;;;6.83;2.40;;;9.20;99.90;;;;;;5082277;28;20446;-78
2023/03/25 07:55:52;;;;;;;9.37;3.00;;;9.20;99.90;;;;;;5077564;28;20447;-78
2023/03/25 07:58:19;;;;;;;10.60;3.10;;;9.10;99.90;;;;;;5061813;28;20471;-77
2023/03/25 08:00:46;;;;;;;12.53;2.70;;;9.10;99.90;;;;;;5076207;28;20986;-77
2023/03/25 08:03:13;;;;;;;12.90;3.23;;;9.10;99.90;;;;;;5074732;28;20446;-78
2023/03/25 08:05:46;;;;;;;10.73;3.20;;;9.20;99.90;;;;;;5073805;28;21220;-78
2023/03/25 08:08:14;;;;;;;10.63;2.90;;;9.50;99.90;;;;;;5089014;28;20522;-78
2023/03/25 08:10:43;;;;;;;9.97;2.97;;;10.00;99.90;;;;;;5074005;28;20453;-78
2023/03/25 08:13:11;;;;;;;11.43;2.90;;;10.20;99.90;;;;;;5088523;28;20457;-78
2023/03/25 08:15:38;;;;;;;16.10;2.80;;;10.30;99.90;;;;;;5092618;28;20882;-78
2023/03/25 08:18:06;;;;;;;14.33;2.93;;;10.50;99.90;;;;;;5085305;28;20483;-78
2023/03/25 08:20:32;;;;;;;7.33;2.20;;;10.80;99.90;;;;;;5090435;28;20449;-78
2023/03/25 08:23:01;;;;;;;14.90;2.13;;;10.70;99.90;;;;;;5081355;28;20465;-79
2023/03/25 08:25:28;;;;;;;8.53;2.03;;;10.70;99.90;;;;;;5086431;28;20499;-78
2023/03/25 08:27:57;;;;;;;9.27;2.40;;;10.60;99.90;;;;;;5087310;28;20470;-78
2023/03/25 08:30:24;;;;;;;18.60;2.60;;;10.60;99.90;;;;;;5074092;28;20537;-78
2023/03/25 08:32:53;;;;;;;7.73;2.13;;;10.60;99.90;;;;;;5102642;22;20489;-81
2023/03/25 08:35:20;;;;;;;10.47;2.37;;;10.70;99.90;;;;;;5092183;28;20438;-82
2023/03/25 08:37:48;;;;;;;6.20;1.80;;;11.00;99.90;;;;;;5079052;28;20941;-81
2023/03/25 08:40:18;;;;;;;14.17;1.90;;;11.00;99.90;;;;;;5094435;28;20445;-82
2023/03/25 08:42:47;;;;;;;8.87;2.03;;;11.10;99.90;;;;;;5093062;28;20485;-83
2023/03/25 08:45:15;;;;;;;6.70;2.00;;;11.00;99.90;;;;;;5112183;28;20484;-82
2023/03/25 08:47:44;;;;;;;6.83;2.23;;;10.90;99.90;;;;;;5109026;28;20477;-82
2023/03/25 08:50:12;;;;;;;6.83;1.83;;;10.90;99.90;;;;;;5099026;28;20446;-82
2023/03/25 08:52:40;;;;;;;15.50;2.60;;;10.90;99.90;;;;;;5093519;28;20806;-81
2023/03/25 08:55:07;;;;;;;5.43;2.13;;;10.90;99.90;;;;;;5106417;28;20919;-81
2023/03/25 08:57:36;;;;;;;12.80;2.97;;;10.80;99.90;;;;;;5113265;28;20886;-80
2023/03/25 09:00:05;;;;;;;6.03;1.60;;;10.80;99.90;;;;;;5100904;28;20446;-82
2023/03/25 09:02:34;;;;;;;9.47;2.27;;;11.00;99.90;;;;;;5092389;28;20446;-83
2023/03/25 09:05:01;;;;;;;16.43;3.00;;;11.20;99.90;;;;;;5110337;28;20461;-79
2023/03/25 09:07:29;;;;;;;10.07;2.90;;;11.60;99.90;;;;;;5094708;28;20551;-80
2023/03/25 09:09:56;;;;;;;7.47;2.17;;;12.10;99.90;;;;;;5095727;28;20974;-80
2023/03/25 09:12:22;;;;;;;6.93;3.20;;;12.20;99.90;;;;;;5088276;28;20529;-80
2023/03/25 09:14:49;;;;;;;12.03;1.70;;;11.90;99.90;;;;;;5092633;28;20469;-79
2023/03/25 09:17:16;;;;;;;9.60;2.17;;;11.80;99.90;;;;;;5087533;28;20810;-80
2023/03/25 09:19:45;;;;;;;7.27;1.90;;;12.00;99.90;;;;;;5113249;28;20455;-80
2023/03/25 09:22:12;;;;;;;6.03;1.67;;;11.90;99.90;;;;;;5084190;28;20480;-80
2023/03/25 09:24:40;;;;;;;7.80;1.63;;;11.70;99.90;;;;;;5113171;28;20490;-80
2023/03/25 09:27:09;;;;;;;7.17;1.90;;;12.00;99.90;;;;;;5073274;28;20999;-80
2023/03/25 09:29:38;;;;;;;13.83;2.87;;;12.60;99.90;;;;;;5109685;28;20984;-80
2023/03/25 09:32:05;;;;;;;10.03;2.27;;;12.70;99.90;;;;;;5108709;28;21045;-76
2023/03/25 09:34:33;;;;;;;4.60;1.50;;;12.30;99.90;;;;;;5103620;28;20927;-75
2023/03/25 09:37:03;;;;;;;17.80;3.57;;;12.00;99.90;;;;;;5100893;28;20448;-80
2023/03/25 09:39:31;;;;;;;8.57;1.60;;;12.20;99.90;;;;;;5100566;28;20779;-81
2023/03/25 09:42:10;;;;;;;12.77;2.13;;;12.20;99.90;;;;;;5080491;28;20446;-80
2023/03/25 09:44:49;;;;;;;11.23;2.37;;;12.30;99.90;;;;;;5093270;28;20464;-80
2023/03/25 09:47:19;;;;;;;10.07;2.63;;;12.10;99.90;;;;;;5100266;28;20469;-80
2023/03/25 09:49:52;;;;;;;10.03;2.27;;;12.10;99.90;;;;;;5074757;28;20461;-80
2023/03/25 09:52:26;;;;;;;7.17;2.03;;;12.00;99.90;;;;;;5094636;28;20445;-80
2023/03/25 09:54:56;;;;;;;9.40;3.13;;;12.20;99.90;;;;;;5094941;28;20450;-80
2023/03/25 09:57:28;;;;;;;11.53;2.63;;;12.60;99.90;;;;;;5104476;28;20523;-85
2023/03/25 09:59:59;;;;;;;10.73;1.60;;;12.70;99.90;;;;;;5090392;28;20446;-80
2023/03/25 10:02:36;;;;;;;12.33;3.57;;;12.50;99.90;;;;;;5087650;28;20449;-80
2023/03/25 10:05:20;;;;;;;8.80;2.20;;;12.50;99.90;;;;;;5094361;28;20456;-80
2023/03/25 10:08:04;;;;;;;9.40;2.03;;;12.60;99.90;;;;;;5103971;28;20483;-80
2023/03/25 10:10:39;;;;;;;7.40;2.40;;;12.50;99.90;;;;;;5109802;28;20490;-80
2023/03/25 10:13:18;;;;;;;7.90;2.43;;;12.70;99.90;;;;;;5077269;28;20485;-80
2023/03/25 10:15:50;;;;;;;13.10;1.90;;;12.70;99.90;;;;;;5106544;28;20542;-80
2023/03/25 10:18:53;;;;;;;10.40;2.63;;;12.40;99.90;;;;;;5107313;28;20472;-80
2023/03/25 10:21:25;;;;;;;12.47;2.73;;;12.50;99.90;;;;;;5110925;28;20448;-80
2023/03/25 10:24:03;;;;;;;10.70;2.33;;;13.30;99.90;;;;;;5107512;28;20489;-80
2023/03/25 10:26:38;;;;;;;11.60;3.07;;;14.00;99.90;;;;;;5100296;28;20446;-81
2023/03/25 10:29:10;;;;;;;8.93;1.90;;;14.00;98.60;;;;;;5109463;28;20531;-81
2023/03/25 10:31:43;;;;;;;10.43;2.07;;;14.10;98.20;;;;;;5096395;28;20509;-81
2023/03/25 10:34:20;;;;;;;8.97;2.00;;;14.30;98.00;;;;;;5081661;28;20482;-81
2023/03/25 10:36:53;;;;;;;9.50;2.03;;;13.10;97.20;;;;;;5103389;28;20453;-80
2023/03/25 10:39:23;;;;;;;12.93;2.87;;;12.50;99.40;;;;;;5108800;28;20498;-80
2023/03/25 10:41:54;;;;;;;11.77;2.00;;;12.60;99.90;;;;;;5100840;28;20534;-80
2023/03/25 10:44:26;;;;;;;8.20;1.97;;;12.60;99.90;;;;;;5074372;28;20544;-80
2023/03/25 10:46:58;;;;;;;10.00;2.57;;;12.30;99.90;;;;;;5075312;28;20474;-80
2023/03/25 10:49:29;;;;;;;7.60;1.87;;;12.30;99.80;;;;;;5105384;28;20469;-80
2023/03/25 10:51:58;;;;;;;9.10;2.33;;;12.50;99.60;;;;;;5103559;28;20450;-80
2023/03/25 10:54:31;;;;;;;6.73;2.00;;;12.60;99.50;;;;;;5073245;28;20449;-81
2023/03/25 10:57:02;;;;;;;7.53;2.10;;;12.40;98.60;;;;;;5093833;28;20469;-80
2023/03/25 10:59:35;;;;;;;9.50;2.23;;;12.50;99.00;;;;;;5103168;28;20496;-79
2023/03/25 11:02:12;;;;;;;6.87;1.50;;;12.60;99.40;;;;;;5097931;28;20502;-80
2023/03/25 11:04:42;;;;;;;6.80;1.40;;;13.10;98.50;;;;;;5108445;28;20994;-80
2023/03/25 11:07:20;;;;;;;12.10;2.07;;;13.50;97.40;;;;;;5096935;28;20470;-80
2023/03/25 11:09:50;;;;;;;7.90;2.10;;;13.40;96.80;;;;;;5112802;28;20448;-82
2023/03/25 11:12:19;;;;;;;11.17;2.60;;;12.90;96.10;;;;;;5114158;28;20446;-80
2023/03/25 11:14:55;;;;;;;8.17;1.60;;;12.90;98.80;;;;;;5091479;28;20489;-80
2023/03/25 11:17:26;;;;;;;11.03;2.37;;;13.20;99.90;;;;;;5105247;28;20476;-83
2023/03/25 11:19:55;;;;;;;11.87;5.80;;;13.40;99.00;;;;;;5099670;28;20459;-80
2023/03/25 11:22:27;;;;;;;11.27;2.00;;;13.50;99.00;;;;;;5106329;28;20456;-80
2023/03/25 11:25:00;;;;;;;10.40;2.30;;;13.10;98.90;;;;;;5096020;28;20816;-80
2023/03/25 11:27:30;;;;;;;9.07;1.67;;;13.50;99.00;;;;;;5097785;28;20468;-80
2023/03/25 11:30:00;;;;;;;5.40;1.60;;;13.60;99.10;;;;;;5108835;28;20455;-79
2023/03/25 11:32:35;;;;;;;9.47;1.97;;;13.30;98.70;;;;;;5106423;28;20468;-80
2023/03/25 11:35:07;;;;;;;5.70;1.60;;;12.90;98.40;;;;;;5098580;28;20515;-80
2023/03/25 11:37:44;;;;;;;12.90;2.30;;;12.90;99.00;;;;;;5087999;28;20452;-79
2023/03/25 11:40:15;;;;;;;8.60;2.10;;;12.90;99.90;;;;;;5084077;28;20453;-79
2023/03/25 11:42:48;;;;;;;8.90;1.97;;;12.70;99.90;;;;;;5108257;28;20497;-79
2023/03/25 11:45:21;;;;;;;11.87;2.67;;;12.60;99.90;;;;;;5090136;28;20457;-79
2023/03/25 11:47:50;;;;;;;10.37;2.30;;;12.80;99.90;;;;;;5105680;28;20476;-79
2023/03/25 11:50:23;;;;;;;9.17;2.27;;;13.30;99.90;;;;;;5084831;28;20460;-79
2023/03/25 11:52:57;;;;;;;15.63;2.03;;;13.20;99.90;;;;;;5087991;28;20462;-79
2023/03/25 11:55:27;;;;;;;10.70;2.00;;;13.10;99.90;;;;;;5094801;28;20460;-80
2023/03/25 11:57:57;;;;;;;10.17;2.50;;;12.30;99.90;;;;;;5105492;28;20475;-79
2023/03/25 12:00:34;;;;;;;9.17;1.73;;;12.50;99.90;;;;;;5114684;28;20484;-80
2023/03/25 12:03:04;;;;;;;12.87;2.30;;;12.10;99.90;;;;;;5105121;28;20442;-81
2023/03/25 12:05:31;;;;;;;16.63;2.60;;;11.20;99.90;;;;;;5111065;28;20449;-81
2023/03/25 12:08:05;;;;;;;12.83;2.70;;;10.20;99.90;;;;;;5098182;28;20480;-81
2023/03/25 12:10:52;;;;;;;10.40;2.73;;;10.00;99.90;;;;;;5105585;28;20461;-80
2023/03/25 12:13:30;;;;;;;12.40;3.43;;;9.70;99.90;;;;;;5094567;28;20452;-79
2023/03/25 12:16:07;;;;;;;18.07;3.53;;;9.30;99.90;;;;;;5096086;28;20988;-80
2023/03/25 12:18:46;;;;;;;18.70;4.57;;;9.10;99.90;;;;;;5085851;28;20892;-80
2023/03/25 12:21:23;;;;;;;14.60;3.77;;;9.00;99.90;;;;;;5097984;28;20491;-80
2023/03/25 12:24:04;;;;;;;10.30;4.50;;;9.20;99.90;;;;;;5101218;28;20535;-79
2023/03/25 12:26:43;;;;;;;13.00;3.67;;;9.60;99.90;;;;;;5113561;28;20452;-80
2023/03/25 12:29:25;;;;;;;10.67;3.67;;;9.80;99.90;;;;;;5096856;28;20469;-80
2023/03/25 12:32:03;;;;;;;10.30;2.37;;;10.00;99.90;;;;;;5091875;28;20472;-81
2023/03/25 12:34:40;;;;;;;12.40;3.33;;;11.40;99.90;;;;;;5110153;28;20494;-81
2023/03/25 12:37:22;;;;;;;8.00;1.70;;;12.30;99.90;;;;;;5113131;28;20624;-81
2023/03/25 12:40:06;;;;;;;9.23;2.27;;;12.10;99.90;;;;;;5111145;28;20472;-80
2023/03/25 12:42:45;;;;;;;8.20;2.50;;;11.70;99.90;;;;;;5090824;28;20449;-81
2023/03/25 12:45:31;;;;;;;11.53;2.03;;;11.70;99.90;;;;;;5092771;28;20458;-81
2023/03/25 12:48:08;;;;;;;9.00;2.30;;;11.60;99.90;;;;;;5058101;28;20600;-80
2023/03/25 12:50:48;;;;;;;10.57;2.03;;;11.50;99.90;;;;;;5113500;28;20456;-79
2023/03/25 12:53:39;;;;;;;10.50;2.20;;;11.80;99.90;;;;;;5098029;28;20831;-80
2023/03/25 12:56:21;;;;;;;9.87;1.77;;;12.30;99.90;;;;;;5074751;28;20457;-79
2023/03/25 12:59:18;;;;;;;6.50;1.70;;;12.20;99.90;;;;;;5112138;28;20496;-82
2023/03/25 13:01:57;;;;;;;6.53;1.60;;;11.90;99.90;;;;;;5086049;28;20521;-79
2023/03/25 13:04:43;;;;;;;8.27;2.77;;;12.00;99.90;;;;;;5081964;28;20450;-79
2023/03/25 13:07:13;;;;;;;9.40;1.97;;;11.90;99.90;;;;;;5106830;28;20453;-79
2023/03/25 13:09:53;;;;;;;11.00;1.87;;;11.70;99.90;;;;;;5096591;28;20505;-80
2023/03/25 13:12:31;;;;;;;14.00;3.07;;;11.40;99.90;;;;;;5108147;28;20953;-79
2023/03/25 13:15:08;;;;;;;12.20;1.90;;;11.20;99.90;;;;;;5090001;28;20507;-82
2023/03/25 13:17:40;;;;;;;10.70;2.77;;;11.00;99.90;;;;;;5097019;28;20449;-83
2023/03/25 13:20:11;;;;;;;6.43;2.00;;;10.70;99.90;;;;;;5081796;28;20533;-83